sensor_id;sensor_type;location;lat;lon;timestamp;temperature;humidity
23637;DHT22;11995;50.842;4.456;2023-03-20T00:02:03;7.60;99.90
23637;DHT22;11995;50.842;4.456;2023-03-20T00:04:31;7.50;99.90
23637;DHT22;11995;50.842;4.456;2023-03-20T00:06:59;7.50;99.90
23637;DHT22;11995;50.842;4.456;2023-03-20T00:09:27;7.50;99.90
23637;DHT22;11995;50.842;4.456;2023-03-20T00:11:54;7.50;99.90
23637;DHT22;11995;50.842;4.456;2023-03-20T00:14:23;7.40;99.90
23637;DHT22;11995;50.842;4.456;2023-03-20T00:16:51;7.30;99.90
23637;DHT22;11995;50.842;4.456;2023-03-20T00:19:27;7.20;99.90
23637;DHT22;11995;50.842;4.456;2023-03-20T00:21:56;7.20;99.90
23637;DHT22;11995;50.842;4.456;2023-03-20T00:24:24;7.20;99.90
23637;DHT22;11995;50.842;4.456;2023-03-20T00:26:52;7.10;99.90
23637;DHT22;11995;50.842;4.456;2023-03-20T00:29:28;7.10;99.90
23637;DHT22;11995;50.842;4.456;2023-03-20T00:31:57;7.10;99.90
23637;DHT22;11995;50.842;4.456;2023-03-20T00:34:28;7.00;99.90
23637;DHT22;11995;50.842;4.456;2023-03-20T00:36:57;7.00;99.90
23637;DHT22;11995;50.842;4.456;2023-03-20T00:39:25;7.00;99.90
23637;DHT22;11995;50.842;4.456;2023-03-20T00:41:59;7.00;99.90
23637;DHT22;11995;50.842;4.456;2023-03-20T00:44:37;7.00;99.90
23637;DHT22;11995;50.842;4.456;2023-03-20T00:47:18;6.90;99.90
23637;DHT22;11995;50.842;4.456;2023-03-20T00:49:47;6.90;99.90
23637;DHT22;11995;50.842;4.456;2023-03-20T00:52:17;7.00;99.90
23637;DHT22;11995;50.842;4.456;2023-03-20T00:54:47;7.00;99.90
23637;DHT22;11995;50.842;4.456;2023-03-20T00:57:26;6.90;99.90
23637;DHT22;11995;50.842;4.456;2023-03-20T00:59:57;7.20;99.90
23637;DHT22;11995;50.842;4.456;2023-03-20T01:02:27;7.40;99.90
23637;DHT22;11995;50.842;4.456;2023-03-20T01:04:55;7.60;99.90
23637;DHT22;11995;50.842;4.456;2023-03-20T01:07:23;7.70;99.90
23637;DHT22;11995;50.842;4.456;2023-03-20T01:09:53;7.60;99.90
23637;DHT22;11995;50.842;4.456;2023-03-20T01:12:22;7.60;99.90
23637;DHT22;11995;50.842;4.456;2023-03-20T01:14:52;7.80;99.90
23637;DHT22;11995;50.842;4.456;2023-03-20T01:17:23;7.80;99.90
23637;DHT22;11995;50.842;4.456;2023-03-20T01:19:51;7.90;99.90
23637;DHT22;11995;50.842;4.456;2023-03-20T01:22:20;7.90;99.90
23637;DHT22;11995;50.842;4.456;2023-03-20T01:24:49;7.90;99.90
23637;DHT22;11995;50.842;4.456;2023-03-20T01:27:18;7.90;99.90
23637;DHT22;11995;50.842;4.456;2023-03-20T01:29:46;7.70;99.90
23637;DHT22;11995;50.842;4.456;2023-03-20T01:32:18;7.70;99.90
23637;DHT22;11995;50.842;4.456;2023-03-20T01:34:45;7.80;99.90
23637;DHT22;11995;50.842;4.456;2023-03-20T01:37:22;7.80;99.90
23637;DHT22;11995;50.842;4.456;2023-03-20T01:39:45;7.90;99.90
23637;DHT22;11995;50.842;4.456;2023-03-20T01:42:16;8.00;99.90
23637;DHT22;11995;50.842;4.456;2023-03-20T01:44:44;8.10;99.90
23637;DHT22;11995;50.842;4.456;2023-03-20T01:47:17;8.20;99.90
23637;DHT22;11995;50.842;4.456;2023-03-20T01:50:19;8.10;99.90
23637;DHT22;11995;50.842;4.456;2023-03-20T01:52:52;8.10;99.90
23637;DHT22;11995;50.842;4.456;2023-03-20T01:55:20;7.90;99.90
23637;DHT22;11995;50.842;4.456;2023-03-20T01:57:49;7.60;99.90
23637;DHT22;11995;50.842;4.456;2023-03-20T02:00:18;7.60;99.90
23637;DHT22;11995;50.842;4.456;2023-03-20T02:02:47;7.60;99.90
23637;DHT22;11995;50.842;4.456;2023-03-20T02:05:17;7.70;99.90
23637;DHT22;11995;50.842;4.456;2023-03-20T02:07:53;7.90;99.90
23637;DHT22;11995;50.842;4.456;2023-03-20T02:10:17;8.00;99.90
23637;DHT22;11995;50.842;4.456;2023-03-20T02:12:46;8.00;99.90
23637;DHT22;11995;50.842;4.456;2023-03-20T02:15:15;8.10;99.90
23637;DHT22;11995;50.842;4.456;2023-03-20T02:17:44;8.10;99.90
23637;DHT22;11995;50.842;4.456;2023-03-20T02:28:46;8.20;99.90
23637;DHT22;11995;50.842;4.456;2023-03-20T02:31:35;8.00;99.90
23637;DHT22;11995;50.842;4.456;2023-03-20T02:34:25;8.00;99.90
23637;DHT22;11995;50.842;4.456;2023-03-20T02:37:03;8.00;99.90
23637;DHT22;11995;50.842;4.456;2023-03-20T02:44:58;8.10;99.90
23637;DHT22;11995;50.842;4.456;2023-03-20T02:47:34;8.10;99.90
23637;DHT22;11995;50.842;4.456;2023-03-20T02:55:46;8.00;99.90
23637;DHT22;11995;50.842;4.456;2023-03-20T02:58:21;7.90;99.90
23637;DHT22;11995;50.842;4.456;2023-03-20T03:00:59;8.00;99.90
23637;DHT22;11995;50.842;4.456;2023-03-20T03:03:43;8.00;99.90
23637;DHT22;11995;50.842;4.456;2023-03-20T03:06:31;7.90;99.90
23637;DHT22;11995;50.842;4.456;2023-03-20T03:08:43;8.00;99.90
23637;DHT22;11995;50.842;4.456;2023-03-20T03:11:11;8.00;99.90
23637;DHT22;11995;50.842;4.456;2023-03-20T03:13:41;8.00;99.90
23637;DHT22;11995;50.842;4.456;2023-03-20T03:16:15;7.90;99.90
23637;DHT22;11995;50.842;4.456;2023-03-20T03:18:40;8.00;99.90
23637;DHT22;11995;50.842;4.456;2023-03-20T03:21:10;8.00;99.90
23637;DHT22;11995;50.842;4.456;2023-03-20T03:23:47;7.90;99.90
23637;DHT22;11995;50.842;4.456;2023-03-20T03:26:26;7.90;99.90
23637;DHT22;11995;50.842;4.456;2023-03-20T03:28:57;7.90;99.90
23637;DHT22;11995;50.842;4.456;2023-03-20T03:31:25;7.80;99.90
23637;DHT22;11995;50.842;4.456;2023-03-20T03:33:55;7.70;99.90
23637;DHT22;11995;50.842;4.456;2023-03-20T03:44:47;7.70;99.90
23637;DHT22;11995;50.842;4.456;2023-03-20T03:47:17;7.80;99.90
23637;DHT22;11995;50.842;4.456;2023-03-20T03:49:49;7.80;99.90
23637;DHT22;11995;50.842;4.456;2023-03-20T03:52:19;7.90;99.90
23637;DHT22;11995;50.842;4.456;2023-03-20T03:54:59;7.80;99.90
23637;DHT22;11995;50.842;4.456;2023-03-20T03:57:35;7.90;99.90
23637;DHT22;11995;50.842;4.456;2023-03-20T04:00:00;7.90;99.90
23637;DHT22;11995;50.842;4.456;2023-03-20T04:02:30;7.90;99.90
23637;DHT22;11995;50.842;4.456;2023-03-20T04:04:59;7.90;99.90
23637;DHT22;11995;50.842;4.456;2023-03-20T04:07:28;8.00;99.90
23637;DHT22;11995;50.842;4.456;2023-03-20T04:09:56;8.00;99.90
23637;DHT22;11995;50.842;4.456;2023-03-20T04:12:34;8.00;99.90
23637;DHT22;11995;50.842;4.456;2023-03-20T04:15:03;8.00;99.90
23637;DHT22;11995;50.842;4.456;2023-03-20T04:17:31;8.00;99.90
23637;DHT22;11995;50.842;4.456;2023-03-20T04:19:59;7.90;99.90
23637;DHT22;11995;50.842;4.456;2023-03-20T04:22:27;7.90;99.90
23637;DHT22;11995;50.842;4.456;2023-03-20T04:24:55;8.00;99.90
23637;DHT22;11995;50.842;4.456;2023-03-20T04:27:22;7.90;99.90
23637;DHT22;11995;50.842;4.456;2023-03-20T04:29:50;7.90;99.90
23637;DHT22;11995;50.842;4.456;2023-03-20T04:32:17;7.90;99.90
23637;DHT22;11995;50.842;4.456;2023-03-20T04:34:45;7.90;99.90
23637;DHT22;11995;50.842;4.456;2023-03-20T04:37:13;7.90;99.90
23637;DHT22;11995;50.842;4.456;2023-03-20T04:39:41;7.90;99.90
23637;DHT22;11995;50.842;4.456;2023-03-20T04:42:09;7.90;99.90
23637;DHT22;11995;50.842;4.456;2023-03-20T04:44:37;7.80;99.90
23637;DHT22;11995;50.842;4.456;2023-03-20T04:47:05;7.70;99.90
23637;DHT22;11995;50.842;4.456;2023-03-20T04:49:32;7.80;99.90
23637;DHT22;11995;50.842;4.456;2023-03-20T04:51:59;7.90;99.90
23637;DHT22;11995;50.842;4.456;2023-03-20T04:54:27;7.80;99.90
23637;DHT22;11995;50.842;4.456;2023-03-20T04:56:54;7.80;99.90
23637;DHT22;11995;50.842;4.456;2023-03-20T04:59:22;7.70;99.90
23637;DHT22;11995;50.842;4.456;2023-03-20T05:01:50;7.70;99.90
23637;DHT22;11995;50.842;4.456;2023-03-20T05:04:17;7.80;99.90
23637;DHT22;11995;50.842;4.456;2023-03-20T05:06:45;7.70;99.90
23637;DHT22;11995;50.842;4.456;2023-03-20T05:09:15;7.60;99.90
23637;DHT22;11995;50.842;4.456;2023-03-20T05:11:47;7.60;99.90
23637;DHT22;11995;50.842;4.456;2023-03-20T05:14:14;7.70;99.90
23637;DHT22;11995;50.842;4.456;2023-03-20T05:16:43;7.70;99.90
23637;DHT22;11995;50.842;4.456;2023-03-20T05:19:10;7.80;99.90
23637;DHT22;11995;50.842;4.456;2023-03-20T05:21:38;7.80;99.90
23637;DHT22;11995;50.842;4.456;2023-03-20T05:24:06;7.70;99.90
23637;DHT22;11995;50.842;4.456;2023-03-20T05:26:34;7.70;99.90
23637;DHT22;11995;50.842;4.456;2023-03-20T05:29:01;7.60;99.90
23637;DHT22;11995;50.842;4.456;2023-03-20T05:31:29;7.70;99.90
23637;DHT22;11995;50.842;4.456;2023-03-20T05:33:56;7.80;99.90
23637;DHT22;11995;50.842;4.456;2023-03-20T05:36:24;7.80;99.90
23637;DHT22;11995;50.842;4.456;2023-03-20T05:38:52;7.70;99.90
23637;DHT22;11995;50.842;4.456;2023-03-20T05:41:20;7.70;99.90
23637;DHT22;11995;50.842;4.456;2023-03-20T05:43:47;7.70;99.90
23637;DHT22;11995;50.842;4.456;2023-03-20T05:46:15;7.80;99.90
23637;DHT22;11995;50.842;4.456;2023-03-20T05:48:42;7.70;99.90
23637;DHT22;11995;50.842;4.456;2023-03-20T05:51:10;7.70;99.90
23637;DHT22;11995;50.842;4.456;2023-03-20T05:53:37;7.70;99.90
23637;DHT22;11995;50.842;4.456;2023-03-20T05:56:05;7.70;99.90
23637;DHT22;11995;50.842;4.456;2023-03-20T05:58:33;7.70;99.90
23637;DHT22;11995;50.842;4.456;2023-03-20T06:01:02;7.70;99.90
23637;DHT22;11995;50.842;4.456;2023-03-20T06:03:29;7.80;99.90
23637;DHT22;11995;50.842;4.456;2023-03-20T06:05:59;7.80;99.90
23637;DHT22;11995;50.842;4.456;2023-03-20T06:08:27;7.80;99.90
23637;DHT22;11995;50.842;4.456;2023-03-20T06:10:56;7.70;99.90
23637;DHT22;11995;50.842;4.456;2023-03-20T06:13:23;7.70;99.90
23637;DHT22;11995;50.842;4.456;2023-03-20T06:15:51;7.70;99.90
23637;DHT22;11995;50.842;4.456;2023-03-20T06:18:18;7.70;99.90
23637;DHT22;11995;50.842;4.456;2023-03-20T06:20:50;7.60;99.90
23637;DHT22;11995;50.842;4.456;2023-03-20T06:23:15;7.60;99.90
23637;DHT22;11995;50.842;4.456;2023-03-20T06:25:43;7.80;99.90
23637;DHT22;11995;50.842;4.456;2023-03-20T06:28:11;7.90;99.90
23637;DHT22;11995;50.842;4.456;2023-03-20T06:30:39;8.00;99.90
23637;DHT22;11995;50.842;4.456;2023-03-20T06:33:07;7.90;99.90
23637;DHT22;11995;50.842;4.456;2023-03-20T06:35:35;8.00;99.90
23637;DHT22;11995;50.842;4.456;2023-03-20T06:38:02;8.00;99.90
23637;DHT22;11995;50.842;4.456;2023-03-20T06:40:30;7.80;99.90
23637;DHT22;11995;50.842;4.456;2023-03-20T06:42:58;7.80;99.90
23637;DHT22;11995;50.842;4.456;2023-03-20T06:45:25;7.80;99.90
23637;DHT22;11995;50.842;4.456;2023-03-20T06:47:53;7.70;99.90
23637;DHT22;11995;50.842;4.456;2023-03-20T06:50:20;7.80;99.90
23637;DHT22;11995;50.842;4.456;2023-03-20T06:52:48;7.80;99.90
23637;DHT22;11995;50.842;4.456;2023-03-20T06:55:16;7.90;99.90
23637;DHT22;11995;50.842;4.456;2023-03-20T06:57:44;7.90;99.90
23637;DHT22;11995;50.842;4.456;2023-03-20T07:00:12;8.00;99.90
23637;DHT22;11995;50.842;4.456;2023-03-20T07:02:40;7.90;99.90
23637;DHT22;11995;50.842;4.456;2023-03-20T07:05:09;7.90;99.90
23637;DHT22;11995;50.842;4.456;2023-03-20T07:07:36;7.90;99.90
23637;DHT22;11995;50.842;4.456;2023-03-20T07:10:04;8.00;99.90
23637;DHT22;11995;50.842;4.456;2023-03-20T07:12:32;7.90;99.90
23637;DHT22;11995;50.842;4.456;2023-03-20T07:15:00;7.90;99.90
23637;DHT22;11995;50.842;4.456;2023-03-20T07:17:27;8.00;99.90
23637;DHT22;11995;50.842;4.456;2023-03-20T07:19:55;8.10;99.90
23637;DHT22;11995;50.842;4.456;2023-03-20T07:22:25;8.10;99.90
23637;DHT22;11995;50.842;4.456;2023-03-20T07:24:52;8.00;99.90
23637;DHT22;11995;50.842;4.456;2023-03-20T07:27:20;8.00;99.90
23637;DHT22;11995;50.842;4.456;2023-03-20T07:29:48;8.00;99.90
23637;DHT22;11995;50.842;4.456;2023-03-20T07:32:16;8.10;99.90
23637;DHT22;11995;50.842;4.456;2023-03-20T07:35:03;8.00;99.90
23637;DHT22;11995;50.842;4.456;2023-03-20T07:37:30;8.10;99.90
23637;DHT22;11995;50.842;4.456;2023-03-20T07:39:58;8.20;99.90
23637;DHT22;11995;50.842;4.456;2023-03-20T07:42:25;8.30;99.90
23637;DHT22;11995;50.842;4.456;2023-03-20T07:44:53;8.30;99.90
23637;DHT22;11995;50.842;4.456;2023-03-20T07:47:21;8.30;99.90
23637;DHT22;11995;50.842;4.456;2023-03-20T07:49:48;8.50;99.90
23637;DHT22;11995;50.842;4.456;2023-03-20T07:52:16;8.50;99.90
23637;DHT22;11995;50.842;4.456;2023-03-20T07:54:43;8.50;99.90
23637;DHT22;11995;50.842;4.456;2023-03-20T07:57:11;8.60;99.90
23637;DHT22;11995;50.842;4.456;2023-03-20T07:59:38;8.70;99.90
23637;DHT22;11995;50.842;4.456;2023-03-20T08:02:06;8.70;99.90
23637;DHT22;11995;50.842;4.456;2023-03-20T08:04:34;8.90;99.90
23637;DHT22;11995;50.842;4.456;2023-03-20T08:07:01;8.90;99.90
23637;DHT22;11995;50.842;4.456;2023-03-20T08:09:29;8.70;99.90
23637;DHT22;11995;50.842;4.456;2023-03-20T08:11:56;8.70;99.90
23637;DHT22;11995;50.842;4.456;2023-03-20T08:14:24;8.70;99.90
23637;DHT22;11995;50.842;4.456;2023-03-20T08:16:52;8.80;99.90
23637;DHT22;11995;50.842;4.456;2023-03-20T08:19:19;8.60;99.90
23637;DHT22;11995;50.842;4.456;2023-03-20T08:21:49;8.60;99.90
23637;DHT22;11995;50.842;4.456;2023-03-20T08:24:17;8.70;99.90
23637;DHT22;11995;50.842;4.456;2023-03-20T08:26:45;8.70;99.90
23637;DHT22;11995;50.842;4.456;2023-03-20T08:29:12;8.70;99.90
23637;DHT22;11995;50.842;4.456;2023-03-20T08:31:42;8.90;99.90
23637;DHT22;11995;50.842;4.456;2023-03-20T08:34:09;8.90;99.90
23637;DHT22;11995;50.842;4.456;2023-03-20T08:36:37;8.90;99.90
23637;DHT22;11995;50.842;4.456;2023-03-20T08:39:06;8.90;99.90
23637;DHT22;11995;50.842;4.456;2023-03-20T08:41:36;8.90;99.90
23637;DHT22;11995;50.842;4.456;2023-03-20T08:44:08;8.80;99.90
23637;DHT22;11995;50.842;4.456;2023-03-20T08:46:37;8.90;99.90
23637;DHT22;11995;50.842;4.456;2023-03-20T08:49:05;9.00;99.90
23637;DHT22;11995;50.842;4.456;2023-03-20T08:51:33;9.10;99.90
23637;DHT22;11995;50.842;4.456;2023-03-20T08:54:01;9.10;99.90
23637;DHT22;11995;50.842;4.456;2023-03-20T08:56:28;9.20;99.90
23637;DHT22;11995;50.842;4.456;2023-03-20T08:58:56;9.40;99.90
23637;DHT22;11995;50.842;4.456;2023-03-20T09:01:23;9.30;99.90
23637;DHT22;11995;50.842;4.456;2023-03-20T09:03:51;9.40;99.90
23637;DHT22;11995;50.842;4.456;2023-03-20T09:06:19;9.30;99.90
23637;DHT22;11995;50.842;4.456;2023-03-20T09:08:46;9.30;99.90
23637;DHT22;11995;50.842;4.456;2023-03-20T09:11:14;9.40;99.90
23637;DHT22;11995;50.842;4.456;2023-03-20T09:13:42;9.30;99.90
23637;DHT22;11995;50.842;4.456;2023-03-20T09:16:11;9.30;99.90
23637;DHT22;11995;50.842;4.456;2023-03-20T09:18:38;9.20;99.90
23637;DHT22;11995;50.842;4.456;2023-03-20T09:21:06;9.30;99.90
23637;DHT22;11995;50.842;4.456;2023-03-20T09:23:34;9.40;99.90
23637;DHT22;11995;50.842;4.456;2023-03-20T09:26:02;9.50;99.90
23637;DHT22;11995;50.842;4.456;2023-03-20T09:28:29;9.80;99.90
23637;DHT22;11995;50.842;4.456;2023-03-20T09:30:57;9.90;99.90
23637;DHT22;11995;50.842;4.456;2023-03-20T09:33:26;9.70;99.90
23637;DHT22;11995;50.842;4.456;2023-03-20T09:35:54;9.60;99.90
23637;DHT22;11995;50.842;4.456;2023-03-20T09:38:21;9.50;99.90
23637;DHT22;11995;50.842;4.456;2023-03-20T09:40:59;9.50;99.90
23637;DHT22;11995;50.842;4.456;2023-03-20T09:51:57;9.60;99.90
23637;DHT22;11995;50.842;4.456;2023-03-20T09:56:54;9.70;99.90
23637;DHT22;11995;50.842;4.456;2023-03-20T09:59:24;9.90;99.90
23637;DHT22;11995;50.842;4.456;2023-03-20T10:02:10;10.00;99.90
23637;DHT22;11995;50.842;4.456;2023-03-20T10:04:33;10.10;99.90
23637;DHT22;11995;50.842;4.456;2023-03-20T10:07:02;10.20;99.90
23637;DHT22;11995;50.842;4.456;2023-03-20T10:09:31;10.30;99.90
23637;DHT22;11995;50.842;4.456;2023-03-20T10:15:06;10.20;99.90
23637;DHT22;11995;50.842;4.456;2023-03-20T10:17:59;10.30;99.90
23637;DHT22;11995;50.842;4.456;2023-03-20T10:20:42;10.30;99.90
23637;DHT22;11995;50.842;4.456;2023-03-20T10:23:20;10.30;99.90
23637;DHT22;11995;50.842;4.456;2023-03-20T10:25:55;10.30;99.90
23637;DHT22;11995;50.842;4.456;2023-03-20T10:28:25;10.30;99.90
23637;DHT22;11995;50.842;4.456;2023-03-20T10:36:34;10.60;99.90
23637;DHT22;11995;50.842;4.456;2023-03-20T10:42:01;10.60;99.90
23637;DHT22;11995;50.842;4.456;2023-03-20T10:44:39;10.70;99.90
23637;DHT22;11995;50.842;4.456;2023-03-20T10:47:11;10.70;99.90
23637;DHT22;11995;50.842;4.456;2023-03-20T10:49:54;11.10;99.90
23637;DHT22;11995;50.842;4.456;2023-03-20T10:52:26;11.20;99.90
23637;DHT22;11995;50.842;4.456;2023-03-20T10:54:57;11.20;99.90
23637;DHT22;11995;50.842;4.456;2023-03-20T10:57:30;11.30;99.90
23637;DHT22;11995;50.842;4.456;2023-03-20T10:59:58;11.30;99.90
23637;DHT22;11995;50.842;4.456;2023-03-20T11:02:30;11.40;99.90
23637;DHT22;11995;50.842;4.456;2023-03-20T11:05:01;11.50;99.90
23637;DHT22;11995;50.842;4.456;2023-03-20T11:07:34;11.20;99.90
23637;DHT22;11995;50.842;4.456;2023-03-20T11:10:07;11.40;99.90
23637;DHT22;11995;50.842;4.456;2023-03-20T11:17:59;11.60;99.90
23637;DHT22;11995;50.842;4.456;2023-03-20T11:20:32;11.50;99.90
23637;DHT22;11995;50.842;4.456;2023-03-20T11:23:05;11.40;99.90
23637;DHT22;11995;50.842;4.456;2023-03-20T11:25:43;11.60;99.90
23637;DHT22;11995;50.842;4.456;2023-03-20T11:28:26;11.50;99.90
23637;DHT22;11995;50.842;4.456;2023-03-20T11:31:05;11.50;99.90
23637;DHT22;11995;50.842;4.456;2023-03-20T11:33:29;11.50;99.90
23637;DHT22;11995;50.842;4.456;2023-03-20T11:35:58;11.40;99.90
23637;DHT22;11995;50.842;4.456;2023-03-20T11:38:28;11.40;99.90
23637;DHT22;11995;50.842;4.456;2023-03-20T11:40:56;11.50;99.90
23637;DHT22;11995;50.842;4.456;2023-03-20T11:43:26;11.50;99.90
23637;DHT22;11995;50.842;4.456;2023-03-20T11:45:59;11.60;99.90
23637;DHT22;11995;50.842;4.456;2023-03-20T11:48:40;11.70;99.90
23637;DHT22;11995;50.842;4.456;2023-03-20T11:51:11;11.80;99.90
23637;DHT22;11995;50.842;4.456;2023-03-20T11:56:23;11.70;99.90
23637;DHT22;11995;50.842;4.456;2023-03-20T12:01:43;11.90;99.90
23637;DHT22;11995;50.842;4.456;2023-03-20T12:04:25;12.00;99.90
23637;DHT22;11995;50.842;4.456;2023-03-20T12:06:59;12.10;99.90
23637;DHT22;11995;50.842;4.456;2023-03-20T12:09:41;11.90;99.90
23637;DHT22;11995;50.842;4.456;2023-03-20T12:14:53;12.00;99.90
23637;DHT22;11995;50.842;4.456;2023-03-20T12:17:33;12.40;99.90
23637;DHT22;11995;50.842;4.456;2023-03-20T12:25:53;12.90;99.90
23637;DHT22;11995;50.842;4.456;2023-03-20T12:28:21;13.00;99.90
23637;DHT22;11995;50.842;4.456;2023-03-20T12:31:06;13.00;99.90
23637;DHT22;11995;50.842;4.456;2023-03-20T12:36:30;12.90;99.90
23637;DHT22;11995;50.842;4.456;2023-03-20T12:39:04;12.90;99.90
23637;DHT22;11995;50.842;4.456;2023-03-20T12:41:40;12.70;99.90
23637;DHT22;11995;50.842;4.456;2023-03-20T12:44:18;12.90;99.90
23637;DHT22;11995;50.842;4.456;2023-03-20T12:58:13;13.30;99.90
23637;DHT22;11995;50.842;4.456;2023-03-20T13:00:54;13.40;99.90
23637;DHT22;11995;50.842;4.456;2023-03-20T13:06:18;13.50;99.90
23637;DHT22;11995;50.842;4.456;2023-03-20T13:09:11;13.40;99.90
23637;DHT22;11995;50.842;4.456;2023-03-20T13:14:33;13.20;99.90
23637;DHT22;11995;50.842;4.456;2023-03-20T13:25:42;12.80;99.90
23637;DHT22;11995;50.842;4.456;2023-03-20T13:28:26;12.90;99.90
23637;DHT22;11995;50.842;4.456;2023-03-20T13:37:00;12.80;99.90
23637;DHT22;11995;50.842;4.456;2023-03-20T13:39:51;12.50;99.90
23637;DHT22;11995;50.842;4.456;2023-03-20T13:42:17;12.60;99.90
23637;DHT22;11995;50.842;4.456;2023-03-20T13:44:46;12.60;99.90
23637;DHT22;11995;50.842;4.456;2023-03-20T13:47:18;12.80;99.90
23637;DHT22;11995;50.842;4.456;2023-03-20T13:49:58;13.00;99.90
23637;DHT22;11995;50.842;4.456;2023-03-20T13:52:36;13.00;99.90
23637;DHT22;11995;50.842;4.456;2023-03-20T13:55:18;13.10;99.90
23637;DHT22;11995;50.842;4.456;2023-03-20T14:06:17;12.30;99.90
23637;DHT22;11995;50.842;4.456;2023-03-20T14:08:46;12.40;99.90
23637;DHT22;11995;50.842;4.456;2023-03-20T14:16:33;12.50;99.90
23637;DHT22;11995;50.842;4.456;2023-03-20T14:19:13;12.20;99.90
23637;DHT22;11995;50.842;4.456;2023-03-20T14:21:36;12.20;99.90
23637;DHT22;11995;50.842;4.456;2023-03-20T14:24:06;12.30;99.90
23637;DHT22;11995;50.842;4.456;2023-03-20T14:26:37;12.40;99.90
23637;DHT22;11995;50.842;4.456;2023-03-20T14:31:41;12.60;99.90
23637;DHT22;11995;50.842;4.456;2023-03-20T14:34:15;12.70;99.90
23637;DHT22;11995;50.842;4.456;2023-03-20T14:36:58;12.80;99.90
23637;DHT22;11995;50.842;4.456;2023-03-20T14:45:01;12.70;99.90
23637;DHT22;11995;50.842;4.456;2023-03-20T14:50:31;12.90;99.90
23637;DHT22;11995;50.842;4.456;2023-03-20T14:55:45;12.70;99.90
23637;DHT22;11995;50.842;4.456;2023-03-20T14:58:04;12.60;99.90
23637;DHT22;11995;50.842;4.456;2023-03-20T15:00:42;12.50;99.90
23637;DHT22;11995;50.842;4.456;2023-03-20T15:03:06;12.60;99.90
23637;DHT22;11995;50.842;4.456;2023-03-20T15:05:37;12.70;99.90
23637;DHT22;11995;50.842;4.456;2023-03-20T15:08:32;12.80;99.90
23637;DHT22;11995;50.842;4.456;2023-03-20T15:10:50;12.80;99.90
23637;DHT22;11995;50.842;4.456;2023-03-20T15:13:18;12.80;99.90
23637;DHT22;11995;50.842;4.456;2023-03-20T15:15:58;12.80;99.90
23637;DHT22;11995;50.842;4.456;2023-03-20T15:18:27;12.80;99.90
23637;DHT22;11995;50.842;4.456;2023-03-20T15:20:56;12.80;99.90
23637;DHT22;11995;50.842;4.456;2023-03-20T15:23:24;12.80;99.90
23637;DHT22;11995;50.842;4.456;2023-03-20T15:25:54;12.70;99.90
23637;DHT22;11995;50.842;4.456;2023-03-20T15:28:24;12.60;99.90
23637;DHT22;11995;50.842;4.456;2023-03-20T15:30:57;12.60;99.90
23637;DHT22;11995;50.842;4.456;2023-03-20T15:33:31;12.70;99.90
23637;DHT22;11995;50.842;4.456;2023-03-20T15:36:21;12.80;99.90
23637;DHT22;11995;50.842;4.456;2023-03-20T15:38:46;12.70;99.90
23637;DHT22;11995;50.842;4.456;2023-03-20T15:41:25;12.70;99.90
23637;DHT22;11995;50.842;4.456;2023-03-20T15:43:53;12.60;99.90
23637;DHT22;11995;50.842;4.456;2023-03-20T15:46:26;12.50;99.90
23637;DHT22;11995;50.842;4.456;2023-03-20T15:48:57;12.50;99.90
23637;DHT22;11995;50.842;4.456;2023-03-20T15:51:26;12.50;99.90
23637;DHT22;11995;50.842;4.456;2023-03-20T15:53:53;12.40;99.90
23637;DHT22;11995;50.842;4.456;2023-03-20T15:56:23;12.50;99.90
23637;DHT22;11995;50.842;4.456;2023-03-20T15:58:52;12.40;99.90
23637;DHT22;11995;50.842;4.456;2023-03-20T16:01:30;12.50;99.90
23637;DHT22;11995;50.842;4.456;2023-03-20T16:03:55;12.60;99.90
23637;DHT22;11995;50.842;4.456;2023-03-20T16:06:23;12.40;99.90
23637;DHT22;11995;50.842;4.456;2023-03-20T16:09:04;12.30;99.90
23637;DHT22;11995;50.842;4.456;2023-03-20T16:11:38;12.30;99.90
23637;DHT22;11995;50.842;4.456;2023-03-20T16:14:12;12.30;99.90
23637;DHT22;11995;50.842;4.456;2023-03-20T16:16:40;12.10;99.90
23637;DHT22;11995;50.842;4.456;2023-03-20T16:19:10;12.20;99.90
23637;DHT22;11995;50.842;4.456;2023-03-20T16:21:46;12.30;99.90
23637;DHT22;11995;50.842;4.456;2023-03-20T16:24:15;12.30;99.90
23637;DHT22;11995;50.842;4.456;2023-03-20T16:26:47;12.30;99.90
23637;DHT22;11995;50.842;4.456;2023-03-20T16:29:14;12.20;99.90
23637;DHT22;11995;50.842;4.456;2023-03-20T16:31:48;12.30;99.90
23637;DHT22;11995;50.842;4.456;2023-03-20T16:34:17;12.20;99.90
23637;DHT22;11995;50.842;4.456;2023-03-20T16:36:54;12.30;99.90
23637;DHT22;11995;50.842;4.456;2023-03-20T16:39:20;12.30;99.90
23637;DHT22;11995;50.842;4.456;2023-03-20T16:44:33;12.10;99.90
23637;DHT22;11995;50.842;4.456;2023-03-20T16:47:21;12.00;99.90
23637;DHT22;11995;50.842;4.456;2023-03-20T16:50:04;11.90;99.90
23637;DHT22;11995;50.842;4.456;2023-03-20T16:52:38;11.90;99.90
23637;DHT22;11995;50.842;4.456;2023-03-20T16:55:15;12.00;99.90
23637;DHT22;11995;50.842;4.456;2023-03-20T16:57:46;12.00;99.90
23637;DHT22;11995;50.842;4.456;2023-03-20T17:00:29;12.00;99.90
23637;DHT22;11995;50.842;4.456;2023-03-20T17:03:15;12.10;99.90
23637;DHT22;11995;50.842;4.456;2023-03-20T17:05:45;12.10;99.90
23637;DHT22;11995;50.842;4.456;2023-03-20T17:08:15;12.00;99.90
23637;DHT22;11995;50.842;4.456;2023-03-20T17:10:50;12.10;99.90
23637;DHT22;11995;50.842;4.456;2023-03-20T17:13:12;12.10;99.90
23637;DHT22;11995;50.842;4.456;2023-03-20T17:15:40;12.20;99.90
23637;DHT22;11995;50.842;4.456;2023-03-20T17:18:12;12.10;99.90
23637;DHT22;11995;50.842;4.456;2023-03-20T17:20:41;12.20;99.90
23637;DHT22;11995;50.842;4.456;2023-03-20T17:23:13;12.10;99.90
23637;DHT22;11995;50.842;4.456;2023-03-20T17:25:43;12.00;99.90
23637;DHT22;11995;50.842;4.456;2023-03-20T17:28:28;12.10;99.90
23637;DHT22;11995;50.842;4.456;2023-03-20T17:30:42;12.10;99.90
23637;DHT22;11995;50.842;4.456;2023-03-20T17:33:16;12.00;99.90
23637;DHT22;11995;50.842;4.456;2023-03-20T17:35:39;11.90;99.90
23637;DHT22;11995;50.842;4.456;2023-03-20T17:38:14;11.90;99.90
23637;DHT22;11995;50.842;4.456;2023-03-20T17:40:37;11.90;99.90
23637;DHT22;11995;50.842;4.456;2023-03-20T17:43:12;11.90;99.90
23637;DHT22;11995;50.842;4.456;2023-03-20T17:45:41;11.90;99.90
23637;DHT22;11995;50.842;4.456;2023-03-20T17:48:19;12.00;99.90
23637;DHT22;11995;50.842;4.456;2023-03-20T17:50:43;12.00;99.90
23637;DHT22;11995;50.842;4.456;2023-03-20T17:53:20;11.90;99.90
23637;DHT22;11995;50.842;4.456;2023-03-20T17:55:50;11.90;99.90
23637;DHT22;11995;50.842;4.456;2023-03-20T17:58:20;11.90;99.90
23637;DHT22;11995;50.842;4.456;2023-03-20T18:00:52;11.90;99.90
23637;DHT22;11995;50.842;4.456;2023-03-20T18:03:20;11.80;99.90
23637;DHT22;11995;50.842;4.456;2023-03-20T18:05:49;11.80;99.90
23637;DHT22;11995;50.842;4.456;2023-03-20T18:08:19;11.90;99.90
23637;DHT22;11995;50.842;4.456;2023-03-20T18:10:48;12.00;99.90
23637;DHT22;11995;50.842;4.456;2023-03-20T18:13:18;12.00;99.90
23637;DHT22;11995;50.842;4.456;2023-03-20T18:15:47;12.00;99.90
23637;DHT22;11995;50.842;4.456;2023-03-20T18:18:15;12.00;99.90